createdAt,value
2023-11-01T00:00:21.478Z,7.03
2023-11-01T00:05:13.222Z,6.57
2023-11-01T00:10:05.438Z,5.82
2023-11-01T00:14:57.257Z,6.78
2023-11-01T00:19:49.069Z,5.68
2023-11-01T00:24:44.470Z,6.82
2023-11-01T00:29:36.431Z,10.63
2023-11-01T00:34:28.113Z,7.68
2023-11-01T00:39:19.806Z,8.45
2023-11-01T00:44:11.517Z,7.72
2023-11-01T00:49:03.231Z,8.50
2023-11-01T00:53:54.929Z,7.95
2023-11-01T00:58:46.613Z,8.18
2023-11-01T01:03:38.481Z,7.53
2023-11-01T01:08:30.896Z,4.53
2023-11-01T01:13:22.800Z,5.70
2023-11-01T01:18:16.033Z,5.65
2023-11-01T01:23:07.833Z,7.18
2023-11-01T01:27:59.492Z,6.78
2023-11-01T01:32:51.280Z,5.32
2023-11-01T01:37:43.536Z,6.07
2023-11-01T01:42:35.219Z,5.07
2023-11-01T01:47:27.006Z,5.05
2023-11-01T01:52:19.121Z,4.93
2023-11-01T01:57:11.736Z,6.45
2023-11-01T02:02:04.980Z,4.63
2023-11-01T02:06:57.508Z,4.80
2023-11-01T02:11:49.752Z,2.70
2023-11-01T02:16:41.657Z,2.50
2023-11-01T02:21:33.618Z,3.65
2023-11-01T02:26:26.768Z,3.40
2023-11-01T02:31:18.606Z,3.17
2023-11-01T02:36:10.565Z,4.50
2023-11-01T02:41:02.229Z,3.38
2023-11-01T02:45:55.045Z,3.10
2023-11-01T02:50:46.745Z,3.22
2023-11-01T02:55:38.512Z,2.33
2023-11-01T03:00:30.265Z,3.15
2023-11-01T03:05:22.718Z,3.58
2023-11-01T03:10:14.652Z,3.40
2023-11-01T03:15:08.681Z,3.47
2023-11-01T03:20:00.722Z,5.93
2023-11-01T03:24:52.437Z,4.22
2023-11-01T03:29:44.128Z,5.22
2023-11-01T03:34:35.984Z,4.93
2023-11-01T03:39:28.102Z,4.22
2023-11-01T03:44:19.970Z,3.42
2023-11-01T03:49:11.635Z,2.88
2023-11-01T03:54:03.361Z,4.00
2023-11-01T03:58:55.155Z,2.25
2023-11-01T04:03:47.788Z,3.53
2023-11-01T04:08:40.292Z,2.65
2023-11-01T04:13:35.534Z,2.75
2023-11-01T04:18:27.576Z,6.40
2023-11-01T04:23:20.841Z,6.00
2023-11-01T04:28:12.609Z,5.15
2023-11-01T04:33:04.555Z,9.55
2023-11-01T04:37:56.322Z,7.20
2023-11-01T04:42:48.050Z,8.13
2023-11-01T04:47:48.105Z,8.70
2023-11-01T04:52:42.047Z,12.00
2023-11-01T04:57:34.137Z,6.45
2023-11-01T05:02:27.406Z,10.50
2023-11-01T05:07:20.700Z,5.50
2023-11-01T05:12:12.455Z,6.90
2023-11-01T05:17:04.172Z,8.35
2023-11-01T05:21:55.939Z,9.73
2023-11-01T05:26:48.084Z,8.90
2023-11-01T05:31:39.948Z,11.90
2023-11-01T05:36:31.812Z,9.80
2023-11-01T05:41:23.812Z,6.55
2023-11-01T05:46:19.865Z,4.53
2023-11-01T05:51:11.503Z,8.60
2023-11-01T05:56:09.720Z,4.13
2023-11-01T06:01:04.983Z,6.43
2023-11-01T06:05:59.657Z,8.27
2023-11-01T06:10:52.859Z,5.53
2023-11-01T06:15:44.470Z,5.93
2023-11-01T06:20:37.083Z,3.85
2023-11-01T06:25:28.861Z,2.13
2023-11-01T06:30:20.522Z,3.30
2023-11-01T06:35:12.314Z,3.17
2023-11-01T06:40:04.765Z,1.88
2023-11-01T06:44:56.523Z,2.33
2023-11-01T06:49:51.317Z,3.53
2023-11-01T06:54:44.717Z,1.10
2023-11-01T06:59:36.686Z,0.98
2023-11-01T07:04:28.702Z,5.07
2023-11-01T07:09:20.673Z,1.10
2023-11-01T07:14:12.440Z,2.70
2023-11-01T07:19:04.114Z,0.98
2023-11-01T07:23:55.905Z,2.13
2023-11-01T07:28:47.642Z,2.53
2023-11-01T07:33:39.436Z,1.85
2023-11-01T07:38:31.318Z,4.85
2023-11-01T07:43:23.874Z,3.00
2023-11-01T07:48:15.668Z,0.50
2023-11-01T07:53:07.360Z,1.55
2023-11-01T07:57:59.113Z,0.85
2023-11-01T08:02:50.896Z,0.80
2023-11-01T08:07:42.728Z,0.70
2023-11-01T08:12:34.370Z,0.43
2023-11-01T08:17:26.141Z,1.83
2023-11-01T08:22:20.704Z,2.90
2023-11-01T08:27:12.976Z,0.88
2023-11-01T08:32:06.745Z,1.33
2023-11-01T08:36:59.072Z,1.10
2023-11-01T08:41:50.777Z,2.45
2023-11-01T08:46:42.494Z,2.90
2023-11-01T08:51:34.157Z,0.73
2023-11-01T08:56:25.825Z,1.73
2023-11-01T09:01:17.896Z,2.25
2023-11-01T09:06:09.862Z,1.58
2023-11-01T09:11:01.492Z,3.35
2023-11-01T09:15:53.138Z,4.13
2023-11-01T09:20:44.831Z,2.38
2023-11-01T09:25:36.471Z,3.35
2023-11-01T09:30:28.311Z,3.13
2023-11-01T09:35:20.077Z,6.55
2023-11-01T09:40:12.988Z,5.45
2023-11-01T09:45:10.783Z,3.33
2023-11-01T09:50:02.676Z,3.85
2023-11-01T09:54:54.413Z,6.13
2023-11-01T09:59:47.254Z,7.22
2023-11-01T10:04:40.481Z,4.28
2023-11-01T10:09:32.679Z,8.52
2023-11-01T10:14:33.831Z,6.10
2023-11-01T10:19:26.924Z,5.75
2023-11-01T10:24:18.757Z,6.75
2023-11-01T10:29:10.647Z,7.35
2023-11-01T10:34:15.346Z,7.68
2023-11-01T10:39:09.308Z,7.43
2023-11-01T10:44:02.925Z,18.05
2023-11-01T10:48:55.136Z,8.00
2023-11-01T10:53:47.997Z,5.22
2023-11-01T10:58:45.169Z,8.63
2023-11-01T11:03:47.277Z,10.33
2023-11-01T11:08:39.244Z,6.38
2023-11-01T11:13:31.072Z,11.18
2023-11-01T11:18:24.329Z,6.88
2023-11-01T11:23:18.364Z,6.88
2023-11-01T11:28:19.773Z,7.03
2023-11-01T11:33:16.005Z,6.65
2023-11-01T11:38:35.087Z,11.80
2023-11-01T11:43:59.261Z,5.13
2023-11-01T11:48:52.646Z,7.07
2023-11-01T11:53:44.448Z,6.15
2023-11-01T11:58:39.454Z,5.28
2023-11-01T12:03:31.418Z,10.77
2023-11-01T12:08:37.253Z,5.38
2023-11-01T12:13:45.878Z,3.50
2023-11-01T12:18:37.719Z,3.17
2023-11-01T12:23:29.475Z,4.03
2023-11-01T12:28:22.279Z,3.08
2023-11-01T12:33:25.280Z,3.75
2023-11-01T12:38:17.503Z,2.97
2023-11-01T12:43:10.014Z,2.00
2023-11-01T12:48:01.865Z,4.05
2023-11-01T12:52:54.263Z,3.25
2023-11-01T12:57:51.168Z,5.88
2023-11-01T13:02:44.283Z,4.85
2023-11-01T13:07:36.378Z,5.78
2023-11-01T13:12:28.068Z,4.53
2023-11-01T13:17:20.764Z,5.18
2023-11-01T13:22:13.781Z,6.50
2023-11-01T13:27:11.507Z,2.10
2023-11-01T13:32:03.740Z,7.47
2023-11-01T13:36:56.934Z,3.55
2023-11-01T13:41:52.006Z,8.45
2023-11-01T13:46:44.363Z,7.78
2023-11-01T13:51:36.332Z,5.40
2023-11-01T13:56:28.276Z,6.32
2023-11-01T14:01:22.945Z,3.85
2023-11-01T14:06:14.601Z,6.60
2023-11-01T14:11:07.441Z,7.70
2023-11-01T14:15:59.148Z,6.22
2023-11-01T14:20:51.746Z,8.60
2023-11-01T14:25:43.964Z,8.90
2023-11-01T14:30:35.837Z,6.80
2023-11-01T14:35:27.523Z,7.55
2023-11-01T14:40:19.275Z,7.45
2023-11-01T14:45:11.410Z,10.38
2023-11-01T14:50:06.232Z,9.05
2023-11-01T14:54:58.486Z,9.10
2023-11-01T14:59:50.276Z,15.07
2023-11-01T15:04:43.196Z,13.88
2023-11-01T15:09:35.959Z,14.05
2023-11-01T15:14:29.364Z,11.63
2023-11-01T15:19:21.100Z,14.60
2023-11-01T15:24:15.048Z,11.45
2023-11-01T15:29:07.438Z,7.32
2023-11-01T15:34:01.711Z,11.02
2023-11-01T15:38:54.301Z,10.65
2023-11-01T15:43:45.942Z,13.20
2023-11-01T15:48:38.193Z,6.75
2023-11-01T15:53:32.560Z,4.53
2023-11-01T15:58:24.764Z,4.38
2023-11-01T16:03:16.677Z,4.63
2023-11-01T16:08:08.695Z,2.10
2023-11-01T16:13:00.418Z,3.70
2023-11-01T16:17:52.316Z,3.60
2023-11-01T16:22:44.200Z,3.78
2023-11-01T16:27:35.901Z,3.85
2023-11-01T16:32:29.673Z,5.47
2023-11-01T16:37:21.545Z,4.15
2023-11-01T16:42:15.355Z,4.53
2023-11-01T16:47:07.948Z,8.00
2023-11-01T16:51:59.658Z,4.90
2023-11-01T16:56:51.352Z,6.00
2023-11-01T17:01:43.123Z,4.68
2023-11-01T17:06:34.811Z,2.33
2023-11-01T17:11:27.029Z,4.72
2023-11-01T17:16:18.827Z,5.05
2023-11-01T17:21:10.772Z,4.47
2023-11-01T17:26:02.440Z,2.05
2023-11-01T17:30:54.241Z,2.05
2023-11-01T17:35:45.936Z,2.70
2023-11-01T17:40:38.631Z,2.70
2023-11-01T17:45:30.247Z,7.00
2023-11-01T17:50:21.993Z,4.82
2023-11-01T17:55:19.465Z,4.80
2023-11-01T18:00:11.720Z,2.45
2023-11-01T18:05:03.689Z,2.40
2023-11-01T18:09:58.096Z,5.07
2023-11-01T18:14:51.269Z,3.58
2023-11-01T18:19:46.436Z,3.38
2023-11-01T18:24:38.062Z,4.03
2023-11-01T18:29:30.444Z,2.35
2023-11-01T18:34:23.979Z,6.78
2023-11-01T18:39:25.362Z,5.80
2023-11-01T18:44:26.747Z,7.30
2023-11-01T18:49:53.298Z,7.60
2023-11-01T18:54:48.908Z,5.30
2023-11-01T18:59:41.242Z,6.68
2023-11-01T19:04:33.178Z,6.95
2023-11-01T19:09:25.152Z,5.25
2023-11-01T19:14:16.928Z,3.38
2023-11-01T19:19:09.207Z,4.90
2023-11-01T19:24:02.406Z,5.97
2023-11-01T19:28:54.212Z,3.90
2023-11-01T19:33:46.714Z,2.95
2023-11-01T19:38:38.701Z,3.38
2023-11-01T19:43:30.406Z,3.80
2023-11-01T19:48:29.230Z,5.60
2023-11-01T19:53:21.524Z,3.20
2023-11-01T19:58:13.290Z,4.68
2023-11-01T20:03:06.496Z,1.75
2023-11-01T20:07:58.903Z,2.20
2023-11-01T20:12:50.619Z,6.50
2023-11-01T20:17:42.785Z,3.67
2023-11-01T20:22:40.091Z,2.28
2023-11-01T20:27:31.850Z,3.47
2023-11-01T20:32:23.866Z,3.20
2023-11-01T20:37:16.712Z,3.40
2023-11-01T20:42:08.475Z,6.78
2023-11-01T20:47:00.192Z,5.05
2023-11-01T20:51:51.845Z,3.80
2023-11-01T20:56:45.237Z,6.32
2023-11-01T21:01:37.817Z,9.38
2023-11-01T21:06:29.596Z,6.32
2023-11-01T21:11:21.502Z,6.22
2023-11-01T21:16:13.552Z,5.32
2023-11-01T21:21:06.528Z,4.15
2023-11-01T21:25:59.920Z,9.32
2023-11-01T21:30:51.627Z,8.95
2023-11-01T21:35:43.269Z,6.00
2023-11-01T21:40:35.138Z,3.85
2023-11-01T21:45:40.320Z,7.30
2023-11-01T21:50:49.637Z,5.95
2023-11-01T21:55:51.479Z,3.45
2023-11-01T22:00:53.684Z,6.05
2023-11-01T22:05:45.695Z,12.73
2023-11-01T22:10:41.177Z,5.78
2023-11-01T22:15:32.987Z,10.18
2023-11-01T22:20:27.116Z,8.68
2023-11-01T22:25:29.618Z,7.90
2023-11-01T22:30:21.359Z,7.38
2023-11-01T22:35:23.938Z,6.00
2023-11-01T22:40:17.225Z,4.95
2023-11-01T22:45:09.328Z,3.67
2023-11-01T22:50:01.785Z,6.55
2023-11-01T22:54:55.572Z,11.13
2023-11-01T22:59:47.333Z,5.60
2023-11-01T23:04:41.827Z,9.38
2023-11-01T23:09:33.512Z,6.18
2023-11-01T23:14:25.629Z,10.15
2023-11-01T23:19:17.843Z,8.77
2023-11-01T23:24:12.223Z,4.15
2023-11-01T23:29:10.227Z,8.50
2023-11-01T23:34:09.495Z,6.30
2023-11-01T23:39:01.338Z,6.78
2023-11-01T23:43:54.774Z,7.35
2023-11-01T23:48:49.337Z,8.45
2023-11-01T23:53:41.784Z,5.53
2023-11-01T23:58:43.100Z,5.72
